Time;durP1;ratioP1;P1;durP2;ratioP2;P2;SDS_P1;SDS_P2;PMS_P1;PMS_P2;Temp;Humidity;BMP_temperature;BMP_pressure;BME280_temperature;BME280_humidity;BME280_pressure;Samples;Min_cycle;Max_cycle;Signal;HPM_P1;HPM_P2
2022/05/10 00:01:28;;;;;;;17.00;7.60;;;17.40;99.90;;;17.97;nan;101156.31;4931549;29;21173;-66
2022/05/10 00:03:57;;;;;;;10.17;7.10;;;17.30;99.90;;;17.90;nan;101161.34;4931720;29;21389;-66
2022/05/10 00:06:25;;;;;;;8.67;6.40;;;17.20;99.90;;;17.85;nan;101150.34;4931064;29;20625;-66
2022/05/10 00:08:52;;;;;;;8.97;7.10;;;17.20;99.90;;;17.82;nan;101163.88;4930596;29;20677;-67
2022/05/10 00:11:19;;;;;;;13.53;7.63;;;17.20;99.90;;;17.83;nan;101150.50;4932805;29;20668;-66
2022/05/10 00:13:46;;;;;;;13.47;7.00;;;17.20;99.90;;;17.79;nan;101148.31;4932220;29;20629;-66
2022/05/10 00:16:15;;;;;;;10.93;7.83;;;17.10;99.90;;;17.78;nan;101154.56;4932943;29;20645;-66
2022/05/10 00:18:43;;;;;;;9.70;7.30;;;17.10;99.90;;;17.79;nan;101158.84;4927634;29;20653;-67
2022/05/10 00:21:12;;;;;;;11.90;8.30;;;17.10;99.90;;;17.82;nan;101159.41;4933540;29;20664;-66
2022/05/10 00:23:39;;;;;;;13.40;7.47;;;17.20;99.90;;;17.88;nan;101152.72;4931795;29;20652;-63
2022/05/10 00:26:06;;;;;;;8.93;7.20;;;17.20;99.90;;;17.82;nan;101148.84;4930851;29;20644;-67
2022/05/10 00:28:33;;;;;;;10.70;7.67;;;17.20;99.90;;;17.67;nan;101160.03;4938054;29;21263;-63
2022/05/10 00:31:00;;;;;;;10.87;7.80;;;17.00;99.90;;;17.64;nan;101153.22;4933333;28;20640;-66
2022/05/10 00:33:30;;;;;;;11.10;8.37;;;17.00;99.90;;;17.55;nan;101150.59;4935093;29;20628;-67
2022/05/10 00:35:58;;;;;;;8.80;7.07;;;16.90;99.90;;;17.58;nan;101152.94;4934771;29;20641;-66
2022/05/10 00:38:32;;;;;;;11.20;8.03;;;16.90;99.90;;;17.61;nan;101156.13;4932589;29;20645;-66
2022/05/10 00:41:30;;;;;;;17.27;9.27;;;17.00;99.90;;;17.64;nan;101149.72;4931483;29;20673;-67
2022/05/10 00:44:14;;;;;;;9.17;6.90;;;17.00;99.90;;;17.61;nan;101144.75;4931372;29;20629;-67
2022/05/10 00:46:51;;;;;;;13.20;9.50;;;17.00;99.90;;;17.58;nan;101147.66;4934993;29;20683;-66
2022/05/10 00:49:30;;;;;;;13.83;8.10;;;16.90;99.90;;;17.61;nan;101144.75;4954169;28;20664;-67
2022/05/10 00:52:21;;;;;;;9.43;7.17;;;17.00;99.90;;;17.56;nan;101145.19;4931388;29;21177;-67
2022/05/10 00:55:05;;;;;;;10.13;7.20;;;16.90;99.90;;;17.56;nan;101139.91;4931189;29;20713;-67
2022/05/10 00:57:56;;;;;;;14.17;9.30;;;16.90;99.90;;;17.55;nan;101145.31;4931375;29;20629;-66
2022/05/10 01:00:27;;;;;;;9.87;7.27;;;17.00;99.90;;;17.49;nan;101144.03;4929656;29;21204;-66
2022/05/10 01:03:11;;;;;;;10.40;8.30;;;16.90;99.90;;;17.46;nan;101136.41;4926888;29;20651;-67
2022/05/10 01:06:08;;;;;;;9.70;7.57;;;16.80;99.90;;;17.49;nan;101140.56;4963016;28;21235;-67
2022/05/10 01:08:42;;;;;;;11.27;9.10;;;16.80;99.90;;;17.44;nan;101138.34;4931500;29;20669;-66
2022/05/10 01:11:16;;;;;;;14.57;8.77;;;16.90;99.90;;;17.46;nan;101130.31;4933494;29;20631;-67
2022/05/10 01:14:04;;;;;;;9.80;7.50;;;16.90;99.90;;;17.40;nan;101128.25;4956764;28;21160;-66
2022/05/10 01:16:31;;;;;;;13.67;10.10;;;16.80;99.90;;;17.35;nan;101127.84;4928698;29;20636;-67
2022/05/10 01:18:58;;;;;;;11.20;8.53;;;16.80;99.90;;;17.26;nan;101121.59;4934807;29;20697;-67
2022/05/10 01:21:42;;;;;;;11.17;6.93;;;16.60;99.90;;;17.26;nan;101128.66;4934945;29;21285;-67
2022/05/10 01:25:08;;;;;;;10.37;7.67;;;16.60;99.90;;;17.23;nan;101126.34;4934048;29;21208;-66
2022/05/10 01:27:49;;;;;;;9.30;7.63;;;16.60;99.90;;;17.15;nan;101126.19;4860200;29;20631;-66
2022/05/10 01:30:19;;;;;;;8.53;6.63;;;16.50;99.90;;;17.20;nan;101129.25;4859497;29;20647;-67
2022/05/10 01:33:29;;;;;;;7.30;6.43;;;16.50;99.90;;;17.11;nan;101120.38;4911484;29;20637;-66
2022/05/10 01:36:21;;;;;;;9.37;7.03;;;16.50;99.90;;;17.06;nan;101117.31;4936752;29;20636;-67
2022/05/10 01:39:25;;;;;;;8.97;6.90;;;16.50;99.90;;;17.08;nan;101113.56;4933446;29;20667;-67
2022/05/10 01:42:20;;;;;;;9.70;6.20;;;16.50;99.90;;;16.97;nan;101107.63;4936737;29;20640;-67
2022/05/10 01:45:02;;;;;;;10.00;7.00;;;16.40;99.90;;;16.87;nan;101101.50;4935469;29;20625;-66
2022/05/10 01:47:49;;;;;;;11.20;7.30;;;16.20;99.90;;;16.79;nan;101106.63;4932907;29;20656;-66
2022/05/10 01:50:46;;;;;;;9.47;6.70;;;16.20;99.90;;;16.76;nan;101097.19;4963820;23;20683;-61
2022/05/10 01:53:25;;;;;;;9.77;6.83;;;16.20;99.90;;;16.70;nan;101095.13;4968502;28;20628;-65
2022/05/10 01:56:11;;;;;;;8.47;7.40;;;16.10;99.90;;;16.68;nan;101097.06;4953660;28;20668;-65
2022/05/10 01:58:41;;;;;;;11.63;7.93;;;16.10;99.90;;;16.64;nan;101100.94;4938236;29;20676;-65
2022/05/10 02:01:20;;;;;;;10.43;7.57;;;16.00;99.90;;;16.67;nan;101097.22;4953864;29;20632;-65
2022/05/10 02:04:12;;;;;;;9.10;6.77;;;16.10;99.90;;;16.60;nan;101098.72;4952012;29;20642;-65
2022/05/10 02:06:53;;;;;;;9.80;6.67;;;16.00;99.90;;;16.60;nan;101099.56;4953649;28;20640;-65
2022/05/10 02:09:45;;;;;;;8.60;7.13;;;16.00;99.90;;;16.52;nan;101095.94;4952648;29;20656;-65
2022/05/10 02:12:18;;;;;;;9.30;6.67;;;15.90;99.90;;;16.57;nan;101097.19;4948915;29;20640;-65
2022/05/10 02:15:10;;;;;;;11.50;7.63;;;16.00;99.90;;;16.58;nan;101088.34;4938863;29;20631;-65
2022/05/10 02:18:02;;;;;;;9.10;7.27;;;16.00;99.90;;;16.58;nan;101095.41;4952145;29;20695;-65
2022/05/10 02:20:50;;;;;;;10.00;7.80;;;16.00;99.90;;;16.59;nan;101086.53;4951857;28;20722;-64
2022/05/10 02:23:32;;;;;;;12.03;8.00;;;16.00;99.90;;;16.63;nan;101085.28;4951564;28;20636;-65
2022/05/10 02:26:31;;;;;;;8.53;6.50;;;16.00;99.90;;;16.59;nan;101097.88;4964822;28;20632;-64
2022/05/10 02:29:18;;;;;;;9.37;7.10;;;16.00;99.90;;;16.53;nan;101098.44;4945156;29;21024;-65
2022/05/10 02:34:45;;;;;;;8.30;6.77;;;15.90;99.90;;;16.49;nan;101089.13;4951355;29;21251;-65
2022/05/10 02:37:15;;;;;;;10.00;7.60;;;15.90;99.90;;;16.47;nan;101087.59;4952915;29;20612;-65
2022/05/10 02:39:42;;;;;;;9.20;6.67;;;15.90;99.90;;;16.48;nan;101087.47;4953083;28;20663;-64
2022/05/10 02:42:12;;;;;;;10.63;7.10;;;15.90;99.90;;;16.49;nan;101083.84;4952244;28;20643;-64
2022/05/10 02:44:39;;;;;;;9.00;6.80;;;15.90;99.90;;;16.44;nan;101086.06;4966877;28;22274;-65
2022/05/10 02:47:09;;;;;;;9.80;7.07;;;15.90;99.90;;;16.43;nan;101075.66;4953053;29;20620;-65
2022/05/10 02:49:38;;;;;;;8.80;7.00;;;15.90;99.90;;;16.36;nan;101074.53;4951651;28;20672;-64
2022/05/10 02:52:06;;;;;;;10.47;6.83;;;15.80;99.90;;;16.33;nan;101081.75;4951230;29;20643;-65
2022/05/10 02:54:33;;;;;;;9.57;7.63;;;15.70;99.90;;;16.25;nan;101067.59;4951599;28;20643;-66
2022/05/10 02:57:03;;;;;;;8.73;6.97;;;15.70;99.90;;;16.20;nan;101072.44;4952338;28;20623;-65
2022/05/10 02:59:36;;;;;;;10.23;6.93;;;15.60;99.90;;;16.16;nan;101071.06;4951196;29;21038;-64
2022/05/10 03:02:37;;;;;;;8.80;7.07;;;15.60;99.90;;;16.15;nan;101066.75;4951460;29;20765;-65
2022/05/10 03:05:05;;;;;;;9.10;6.67;;;15.60;99.90;;;16.14;nan;101065.91;4947919;29;20658;-65
2022/05/10 03:07:32;;;;;;;13.60;8.17;;;15.60;99.90;;;16.14;nan;101070.38;4951853;28;20644;-65
2022/05/10 03:09:58;;;;;;;10.57;8.17;;;15.60;99.90;;;16.09;nan;101067.28;4952711;28;20683;-65
2022/05/10 03:12:26;;;;;;;11.77;7.67;;;15.50;99.90;;;16.06;nan;101064.91;4952083;29;20645;-64
2022/05/10 03:14:54;;;;;;;7.77;6.53;;;15.50;99.90;;;16.03;nan;101073.09;4950956;29;20695;-64
2022/05/10 03:17:21;;;;;;;10.57;8.27;;;15.50;99.90;;;16.03;nan;101067.84;4952557;28;20635;-65
2022/05/10 03:19:48;;;;;;;9.53;7.57;;;15.50;99.90;;;16.03;nan;101067.84;4950878;29;20664;-65
2022/05/10 03:22:15;;;;;;;10.07;7.90;;;15.50;99.90;;;16.04;nan;101065.06;4952614;28;20636;-65
2022/05/10 03:24:42;;;;;;;11.00;8.10;;;15.50;99.90;;;16.05;nan;101071.16;4951535;29;20640;-66
2022/05/10 03:27:11;;;;;;;10.70;7.30;;;15.50;99.90;;;16.04;nan;101069.47;4950595;29;21290;-65
2022/05/10 03:29:39;;;;;;;11.40;7.63;;;15.50;99.90;;;16.02;nan;101071.41;4950643;29;20683;-65
2022/05/10 03:32:09;;;;;;;7.77;6.40;;;15.50;99.90;;;16.02;nan;101072.25;4950468;28;20655;-66
2022/05/10 03:34:54;;;;;;;11.63;7.43;;;15.50;99.90;;;15.97;nan;101066.56;4948018;28;20639;-66
2022/05/10 03:37:22;;;;;;;8.10;6.70;;;15.40;99.90;;;16.00;nan;101070.72;4937288;29;20628;-66
2022/05/10 03:39:49;;;;;;;7.77;6.20;;;15.40;99.90;;;16.08;nan;101068.25;4950317;29;20679;-65
2022/05/10 03:42:19;;;;;;;8.47;6.40;;;15.50;99.90;;;16.01;nan;101064.50;4951237;28;20742;-62
2022/05/10 03:44:50;;;;;;;9.77;6.83;;;15.50;99.90;;;15.96;nan;101057.00;4952124;28;20980;-65
2022/05/10 03:47:18;;;;;;;8.67;6.47;;;15.40;99.90;;;15.90;nan;101057.56;4950467;28;20647;-66
2022/05/10 03:49:45;;;;;;;8.57;6.83;;;15.30;99.90;;;15.85;nan;101059.75;4939505;29;21079;-65
2022/05/10 03:52:14;;;;;;;8.30;6.73;;;15.30;99.90;;;15.82;nan;101061.81;4947762;29;20624;-66
2022/05/10 03:54:42;;;;;;;12.40;7.20;;;15.20;99.90;;;15.82;nan;101069.72;4951831;28;20982;-65
2022/05/10 03:57:10;;;;;;;10.73;7.77;;;15.20;99.90;;;15.86;nan;101063.22;4950605;29;20640;-66
2022/05/10 03:59:41;;;;;;;7.87;6.50;;;15.30;99.90;;;15.86;nan;101071.94;4951159;28;20659;-66
2022/05/10 04:02:11;;;;;;;9.43;7.23;;;15.30;99.90;;;15.93;nan;101074.88;4950919;29;20611;-66
2022/05/10 04:04:39;;;;;;;9.63;6.93;;;15.30;99.90;;;15.93;nan;101069.63;4948866;29;20703;-64
2022/05/10 04:07:06;;;;;;;8.77;7.50;;;15.40;99.90;;;15.98;nan;101080.56;4948042;29;20640;-66
2022/05/10 04:09:34;;;;;;;10.47;7.47;;;15.40;99.90;;;16.04;nan;101080.00;4950269;29;21220;-66
2022/05/10 04:12:02;;;;;;;8.57;6.80;;;15.50;99.90;;;16.10;nan;101079.47;4950940;28;20636;-66
2022/05/10 04:14:29;;;;;;;10.10;6.60;;;15.60;99.90;;;16.14;nan;101081.69;4951619;28;20623;-66
2022/05/10 04:16:56;;;;;;;7.63;6.87;;;15.60;99.90;;;16.17;nan;101080.59;4946975;29;21066;-66
2022/05/10 04:19:24;;;;;;;9.60;7.30;;;15.60;99.90;;;16.22;nan;101083.69;4938811;29;20660;-66
2022/05/10 04:21:51;;;;;;;11.50;7.47;;;15.70;99.90;;;16.32;nan;101081.88;4950089;28;20648;-64
2022/05/10 04:24:18;;;;;;;8.37;6.70;;;15.80;99.90;;;16.40;nan;101084.66;4950210;29;20659;-64
2022/05/10 04:26:45;;;;;;;9.53;7.10;;;15.90;99.90;;;16.54;nan;101094.84;4951224;28;20660;-65
2022/05/10 04:29:12;;;;;;;11.30;8.03;;;16.00;99.90;;;16.60;nan;101094.28;4948527;29;20687;-61
2022/05/10 04:31:39;;;;;;;13.50;9.88;;;16.10;99.90;;;16.59;nan;101092.63;4941838;28;25029;-66
2022/05/10 04:34:06;;;;;;;12.63;8.67;;;16.20;99.90;;;16.67;nan;101087.50;4965233;28;20291;-65
2022/05/10 04:36:34;;;;;;;12.37;9.50;;;16.20;99.90;;;16.74;nan;101087.75;4951032;28;20636;-65
2022/05/10 04:39:02;;;;;;;12.67;8.90;;;16.30;99.90;;;16.79;nan;101093.47;4951261;29;20665;-65
2022/05/10 04:41:33;;;;;;;11.17;8.33;;;16.30;99.90;;;16.84;nan;101097.38;4952294;28;20645;-65
2022/05/10 04:44:05;;;;;;;11.97;7.83;;;16.40;99.90;;;16.98;nan;101099.56;4950499;28;20636;-65
2022/05/10 04:46:35;;;;;;;13.23;9.37;;;16.50;99.90;;;17.05;nan;101091.94;4952822;28;20644;-65
2022/05/10 04:49:03;;;;;;;10.93;8.47;;;16.50;99.90;;;17.16;nan;101096.22;4952003;28;20805;-65
2022/05/10 04:51:30;;;;;;;10.40;8.87;;;16.70;99.90;;;17.30;nan;101091.34;4955633;28;21032;-66
2022/05/10 04:53:57;;;;;;;9.70;8.10;;;16.80;99.90;;;17.43;nan;101099.78;4954384;29;21038;-66
2022/05/10 04:56:24;;;;;;;10.07;8.40;;;16.90;99.90;;;17.60;nan;101099.06;4955647;28;20675;-62
2022/05/10 04:58:54;;;;;;;10.13;8.30;;;17.10;99.90;;;17.79;nan;101098.16;4954914;28;20652;-66
2022/05/10 05:01:27;;;;;;;10.80;7.80;;;17.30;99.90;;;17.99;nan;101088.34;4954155;28;20635;-66
2022/05/10 05:03:56;;;;;;;9.80;7.57;;;17.50;99.90;;;18.28;nan;101096.94;4953561;28;21251;-66
2022/05/10 05:06:27;;;;;;;9.97;7.30;;;17.80;99.90;;;18.52;nan;101100.72;4954689;28;20631;-62
2022/05/10 05:08:55;;;;;;;13.13;7.70;;;18.10;99.90;;;18.72;nan;101100.56;4953787;28;20696;-65
2022/05/10 05:11:23;;;;;;;8.27;6.57;;;18.30;99.90;;;18.87;nan;101105.13;4954124;28;21271;-65
2022/05/10 05:13:50;;;;;;;9.50;7.33;;;18.50;99.90;;;19.09;nan;101109.13;4969791;28;20636;-66
2022/05/10 05:16:17;;;;;;;10.43;7.80;;;18.70;99.90;;;19.27;nan;101105.47;4954910;28;20624;-66
2022/05/10 05:18:46;;;;;;;10.23;7.90;;;18.80;99.90;;;19.48;nan;101105.16;4952736;28;20746;-66
2022/05/10 05:21:13;;;;;;;8.80;7.90;;;19.00;99.90;;;19.71;nan;101108.94;4952959;28;20989;-66
2022/05/10 05:23:40;;;;;;;10.60;8.40;;;19.30;99.90;;;19.92;nan;101111.16;4953281;29;20712;-66
2022/05/10 05:26:07;;;;;;;10.47;8.70;;;19.50;99.90;;;19.92;nan;101116.47;4953500;29;21062;-66
2022/05/10 05:28:34;;;;;;;7.60;6.90;;;19.50;99.90;;;20.07;nan;101109.59;4954073;28;20647;-66
2022/05/10 05:31:02;;;;;;;14.40;7.83;;;19.60;99.90;;;20.22;nan;101110.66;4952139;29;20667;-66
2022/05/10 05:33:29;;;;;;;11.30;8.33;;;19.80;99.90;;;20.36;nan;101111.88;4969076;28;20647;-66
2022/05/10 05:35:56;;;;;;;10.40;8.00;;;19.90;99.90;;;20.46;nan;101113.38;4951797;28;20627;-66
2022/05/10 05:38:26;;;;;;;14.90;7.87;;;20.00;99.90;;;20.56;nan;101118.53;4954436;29;20620;-66
2022/05/10 05:40:53;;;;;;;11.13;8.13;;;20.10;99.90;;;20.88;nan;101111.47;4953834;28;21192;-66
2022/05/10 05:43:22;;;;;;;10.53;7.90;;;20.40;99.90;;;21.23;nan;101112.94;4954228;28;21184;-62
2022/05/10 05:45:51;;;;;;;11.40;8.27;;;20.80;99.90;;;21.56;nan;101114.56;4948143;29;20648;-66
2022/05/10 05:48:18;;;;;;;11.40;8.60;;;21.20;99.10;;;21.55;nan;101112.91;4949867;29;20695;-66
2022/05/10 05:50:46;;;;;;;15.03;8.13;;;21.10;97.80;;;21.70;nan;101109.56;4944998;29;20727;-67
2022/05/10 05:53:13;;;;;;;9.30;8.17;;;21.20;97.30;;;21.82;nan;101103.75;4952657;29;20640;-66
2022/05/10 05:55:42;;;;;;;11.93;8.67;;;21.40;97.00;;;22.07;nan;101107.97;4953659;28;20701;-66
2022/05/10 05:58:10;;;;;;;9.00;7.70;;;21.70;96.80;;;22.36;nan;101105.47;4953921;28;20619;-67
2022/05/10 06:00:38;;;;;;;11.87;8.13;;;22.00;96.30;;;22.68;nan;101106.31;4950172;28;20676;-66
2022/05/10 06:03:05;;;;;;;15.90;9.43;;;22.30;95.60;;;22.92;nan;101106.13;4947123;29;20690;-66
2022/05/10 06:05:32;;;;;;;12.40;9.37;;;22.60;94.50;;;23.06;nan;101106.16;4946030;28;20699;-66
2022/05/10 06:08:01;;;;;;;21.10;11.60;;;22.70;94.40;;;23.22;nan;101104.38;4946500;29;20627;-65
2022/05/10 06:10:28;;;;;;;17.50;12.03;;;22.80;93.60;;;23.43;nan;101108.03;4953071;28;20672;-64
2022/05/10 06:13:01;;;;;;;16.13;11.60;;;23.00;93.60;;;23.86;nan;101111.72;4952887;29;20619;-64
2022/05/10 06:15:28;;;;;;;15.57;10.90;;;23.50;92.70;;;24.54;nan;101114.00;4951902;29;20695;-64
2022/05/10 06:17:56;;;;;;;10.47;8.57;;;24.20;91.30;;;25.21;nan;101119.81;4953616;28;21203;-65
2022/05/10 06:20:24;;;;;;;15.20;9.87;;;24.90;89.60;;;25.76;nan;101118.97;4952139;28;20660;-64
2022/05/10 06:22:51;;;;;;;13.17;10.07;;;25.40;85.80;;;26.34;nan;101115.78;4952346;28;20632;-65
2022/05/10 06:25:22;;;;;;;14.57;11.23;;;26.00;82.90;;;27.05;nan;101116.94;4948659;29;20639;-64
2022/05/10 06:27:51;;;;;;;10.90;9.73;;;26.80;78.90;;;28.03;nan;101108.78;4951132;29;20636;-64
2022/05/10 06:30:19;;;;;;;11.07;8.80;;;27.60;75.50;;;29.43;nan;101121.97;4942291;29;21259;-64
2022/05/10 06:32:47;;;;;;;15.10;10.50;;;29.10;70.30;;;30.70;nan;101117.31;4946244;29;20949;-65
2022/05/10 06:35:17;;;;;;;10.13;8.70;;;30.40;65.00;;;31.86;nan;101112.81;4952189;28;20878;-65
2022/05/10 06:40:33;;;;;;;11.67;9.00;;;32.10;57.00;;;32.84;nan;101113.41;4941954;29;20653;-64
2022/05/10 06:43:00;;;;;;;12.07;9.97;;;32.50;55.80;;;33.10;nan;101116.53;4941307;29;20651;-65
2022/05/10 06:45:28;;;;;;;10.80;9.57;;;32.70;54.50;;;33.18;nan;101119.66;4942868;29;20628;-64
2022/05/10 06:47:55;;;;;;;10.30;8.67;;;32.80;54.20;;;33.28;nan;101119.84;4938309;29;20643;-65
2022/05/10 06:50:24;;;;;;;11.10;9.87;;;32.80;53.40;;;32.92;nan;101117.59;4950366;29;20676;-65
2022/05/10 06:52:54;;;;;;;11.63;9.47;;;32.50;52.80;;;32.39;nan;101112.56;4949625;28;20639;-65
2022/05/10 06:55:23;;;;;;;10.57;9.23;;;31.90;53.20;;;32.49;nan;101109.28;4945785;28;20655;-64
2022/05/10 06:57:51;;;;;;;16.23;9.60;;;31.90;53.50;;;33.21;nan;101113.75;4950508;28;20655;-65
2022/05/10 07:00:19;;;;;;;9.93;8.80;;;32.60;52.60;;;34.19;nan;101110.25;4952745;28;20678;-64
2022/05/10 07:02:46;;;;;;;12.63;9.20;;;33.60;51.00;;;35.09;nan;101105.75;4952738;28;20647;-66
2022/05/10 07:05:16;;;;;;;9.97;8.97;;;34.70;49.60;;;35.58;nan;101103.63;4951560;29;20679;-62
2022/05/10 07:07:43;;;;;;;12.63;10.10;;;35.20;48.30;;;35.54;nan;101101.69;4951344;28;20631;-65
2022/05/10 07:10:13;;;;;;;11.57;9.10;;;35.10;48.00;;;35.42;nan;101101.88;4929751;29;20677;-65
2022/05/10 07:12:43;;;;;;;12.30;10.37;;;35.00;47.70;;;35.27;nan;101099.06;4932989;29;20629;-66
2022/05/10 07:15:16;;;;;;;11.93;10.77;;;34.80;47.50;;;35.17;nan;101100.88;4943257;29;20657;-67
2022/05/10 07:17:43;;;;;;;12.00;10.40;;;34.70;47.50;;;34.83;nan;101098.44;4952156;29;20608;-65
2022/05/10 07:20:13;;;;;;;13.20;11.20;;;34.40;47.80;;;34.52;nan;101099.25;4951251;29;20678;-65
2022/05/10 07:22:41;;;;;;;14.90;12.10;;;34.10;47.70;;;33.76;nan;101102.94;4934295;29;20994;-65
2022/05/10 07:25:11;;;;;;;16.00;11.87;;;33.30;49.20;;;33.12;nan;101093.59;4932888;29;21228;-65
2022/05/10 07:27:39;;;;;;;14.30;11.80;;;32.60;49.40;;;32.85;nan;101098.00;4949649;29;21282;-65
2022/05/10 07:30:07;;;;;;;14.53;11.70;;;32.40;50.00;;;32.57;nan;101092.66;4950939;28;21062;-65
2022/05/10 07:32:34;;;;;;;14.83;12.20;;;32.10;50.30;;;32.83;nan;101095.56;4948088;28;20632;-65
2022/05/10 07:35:03;;;;;;;19.17;12.00;;;32.30;50.70;;;33.05;nan;101102.97;4944806;28;20648;-65
2022/05/10 07:37:33;;;;;;;18.30;12.57;;;32.60;50.40;;;33.38;nan;101097.50;4932764;29;20617;-65
2022/05/10 07:40:02;;;;;;;13.57;11.57;;;32.80;50.20;;;34.09;nan;101105.56;4940704;29;21041;-65
2022/05/10 07:42:29;;;;;;;16.20;12.37;;;33.60;49.60;;;35.01;nan;101108.13;4952896;28;20627;-65
2022/05/10 07:44:56;;;;;;;17.37;11.53;;;34.60;48.70;;;35.68;nan;101102.84;4950211;29;20771;-65
2022/05/10 07:47:24;;;;;;;15.90;11.60;;;35.30;48.00;;;36.26;nan;101102.56;4952014;28;20635;-65
2022/05/10 07:49:51;;;;;;;15.90;11.00;;;35.90;47.10;;;36.34;nan;101095.75;4964637;23;20696;-70
2022/05/10 07:52:18;;;;;;;15.50;12.00;;;36.00;46.50;;;36.83;nan;101101.53;4951209;28;20643;-65
2022/05/10 07:54:44;;;;;;;16.97;11.83;;;36.50;46.30;;;37.93;nan;101104.06;4949319;29;20636;-66
2022/05/10 07:57:11;;;;;;;13.77;11.80;;;37.60;46.10;;;37.71;nan;101106.34;4952324;28;20628;-66
2022/05/10 07:59:38;;;;;;;11.60;10.40;;;37.40;44.60;;;37.72;nan;101099.78;4944916;29;20670;-66
2022/05/10 08:02:07;;;;;;;11.87;10.67;;;37.50;44.40;;;37.90;nan;101093.75;4913293;29;20633;-67
2022/05/10 08:04:34;;;;;;;10.70;9.63;;;37.60;44.10;;;37.38;nan;101090.63;4919748;29;21259;-67
2022/05/10 08:07:01;;;;;;;9.83;8.83;;;37.30;44.20;;;37.80;nan;101091.06;4931663;29;20641;-69
2022/05/10 08:09:28;;;;;;;11.73;9.07;;;37.30;44.50;;;38.05;nan;101088.22;4932124;29;20648;-66
2022/05/10 08:11:55;;;;;;;8.30;7.53;;;37.70;43.70;;;37.87;nan;101085.31;4924259;29;20650;-68
2022/05/10 08:14:22;;;;;;;8.57;7.77;;;37.80;43.40;;;38.31;nan;101080.75;4913697;29;21544;-66
2022/05/10 08:16:49;;;;;;;8.60;7.80;;;38.30;43.10;;;38.87;nan;101081.13;4932299;29;20754;-66
2022/05/10 08:19:16;;;;;;;9.40;8.50;;;38.70;42.80;;;38.15;nan;101084.63;4931245;29;20613;-69
2022/05/10 08:21:43;;;;;;;8.60;7.87;;;37.90;42.80;;;38.41;nan;101071.66;4930847;29;20715;-67
2022/05/10 08:24:10;;;;;;;8.90;8.13;;;38.00;43.20;;;39.21;nan;101073.72;4932617;29;20613;-67
2022/05/10 08:26:37;;;;;;;7.73;7.07;;;38.80;42.70;;;39.97;nan;101072.81;4922743;29;20649;-66
2022/05/10 08:29:04;;;;;;;10.07;7.50;;;39.70;42.00;;;40.87;nan;101071.44;4914749;29;20866;-67
2022/05/10 08:31:31;;;;;;;8.83;7.93;;;40.60;41.50;;;40.69;nan;101069.56;4933304;29;20681;-68
2022/05/10 08:34:00;;;;;;;8.00;7.40;;;40.50;40.50;;;41.06;nan;101073.31;4932136;29;20624;-66
2022/05/10 08:36:27;;;;;;;8.03;7.33;;;41.30;40.00;;;41.51;nan;101075.97;4912354;29;20642;-67
2022/05/10 08:38:54;;;;;;;7.50;6.93;;;41.20;40.10;;;41.93;nan;101074.84;4913379;29;20633;-67
2022/05/10 08:42:11;;;;;;;8.13;7.43;;;41.70;39.60;;;42.48;nan;101072.78;4924869;29;21248;-67
2022/05/10 08:44:40;;;;;;;7.43;6.83;;;42.10;39.40;;;43.18;nan;101067.38;4930519;29;20645;-66
2022/05/10 08:47:10;;;;;;;8.57;7.37;;;43.10;38.60;;;42.25;nan;101062.91;4919618;29;20645;-66
2022/05/10 08:49:58;;;;;;;8.00;7.30;;;42.20;38.20;;;43.27;nan;101060.00;4919046;29;20673;-66
2022/05/10 08:52:47;;;;;;;8.17;7.47;;;42.90;38.50;;;43.52;nan;101058.44;4931213;29;20691;-66
2022/05/10 08:55:21;;;;;;;8.90;8.20;;;43.30;38.10;;;43.78;nan;101059.34;4925839;29;20634;-66
2022/05/10 08:58:04;;;;;;;7.83;7.17;;;43.50;38.10;;;43.16;nan;101047.66;4912067;29;20706;-69
2022/05/10 09:00:43;;;;;;;8.87;8.07;;;43.40;37.70;;;41.35;nan;101049.22;4913176;29;20673;-66
2022/05/10 09:03:58;;;;;;;7.07;6.57;;;42.50;37.40;;;42.30;nan;101049.84;4917645;29;20637;-66
2022/05/10 09:06:54;;;;;;;7.60;7.00;;;42.40;38.10;;;43.08;nan;101046.50;4919104;29;20653;-67
2022/05/10 09:09:28;;;;;;;8.23;7.40;;;42.70;38.00;;;43.47;nan;101050.38;4912100;29;20880;-69
2022/05/10 09:12:25;;;;;;;9.20;7.47;;;43.10;38.00;;;42.78;nan;101043.75;4913592;29;21012;-67
2022/05/10 09:15:06;;;;;;;7.47;6.90;;;42.80;37.70;;;43.64;nan;101044.94;4922977;29;20669;-67
2022/05/10 09:17:36;;;;;;;8.30;7.53;;;43.20;38.00;;;42.62;nan;101037.03;4931836;29;20633;-69
2022/05/10 09:20:06;;;;;;;7.40;6.90;;;42.40;38.00;;;41.84;nan;101042.97;4923607;29;20800;-66
2022/05/10 09:23:17;;;;;;;7.77;7.07;;;41.50;38.90;;;41.72;nan;101038.06;4924936;29;20608;-69
2022/05/10 09:25:45;;;;;;;8.97;8.13;;;41.20;39.20;;;41.31;nan;101035.31;4929855;29;20633;-66
2022/05/10 09:29:00;;;;;;;8.10;7.40;;;40.90;39.20;;;40.53;nan;101040.03;4933094;29;20636;-67
2022/05/10 09:34:47;;;;;;;7.60;7.10;;;40.20;39.90;;;41.63;nan;101037.13;4933701;29;20641;-66
2022/05/10 09:37:30;;;;;;;9.07;8.37;;;41.20;39.60;;;40.63;nan;101028.91;4918969;29;20633;-66
2022/05/10 09:39:57;;;;;;;7.60;7.00;;;40.40;39.50;;;40.18;nan;101023.06;4929001;29;21236;-67
2022/05/10 09:42:38;;;;;;;7.90;7.30;;;39.70;40.30;;;39.33;nan;101018.72;4935473;29;20633;-67
2022/05/10 09:45:20;;;;;;;8.23;7.53;;;39.20;40.70;;;39.01;nan;101015.78;4917515;29;20645;-66
2022/05/10 09:48:08;;;;;;;8.73;7.90;;;39.00;40.90;;;38.68;nan;101007.38;4916140;29;20642;-67
2022/05/10 09:50:41;;;;;;;8.23;7.57;;;38.40;41.10;;;40.05;nan;101014.78;4915689;29;20678;-70
2022/05/10 09:53:30;;;;;;;9.70;8.80;;;39.60;40.90;;;40.71;nan;101014.53;4916938;29;20638;-67
2022/05/10 09:56:07;;;;;;;8.90;8.00;;;40.30;40.40;;;41.41;nan;101017.84;4914865;29;21190;-65
2022/05/10 09:58:42;;;;;;;9.03;8.27;;;41.00;40.30;;;42.09;nan;101009.53;4925963;29;20645;-67
2022/05/10 10:01:13;;;;;;;8.77;8.07;;;41.80;39.20;;;42.17;nan;101020.56;4914383;29;20637;-70
2022/05/10 10:03:43;;;;;;;9.23;8.07;;;42.00;38.80;;;42.55;nan;101009.22;4915738;29;20629;-67
2022/05/10 10:06:21;;;;;;;7.60;7.00;;;42.20;38.70;;;41.18;nan;101005.97;4933998;29;20643;-67
2022/05/10 10:08:54;;;;;;;8.57;7.77;;;41.50;38.90;;;40.76;nan;100998.81;4918139;29;20630;-67
2022/05/10 10:11:41;;;;;;;9.33;8.53;;;40.70;39.90;;;41.53;nan;100996.25;4932102;29;20680;-68
2022/05/10 10:14:10;;;;;;;7.53;7.00;;;41.20;40.80;;;40.90;nan;100988.75;4934325;29;21364;-69
2022/05/10 10:16:53;;;;;;;8.30;7.50;;;41.00;40.00;;;39.68;nan;100982.78;4915259;29;20634;-68
2022/05/10 10:19:20;;;;;;;9.17;8.20;;;39.70;40.70;;;39.98;nan;100976.06;4917495;29;20715;-67
2022/05/10 10:22:08;;;;;;;8.73;8.03;;;39.50;40.90;;;38.87;nan;100971.19;4915965;29;20646;-66
2022/05/10 10:24:53;;;;;;;8.50;7.80;;;38.50;41.50;;;37.81;nan;100969.31;4916766;29;20637;-66
2022/05/10 10:27:45;;;;;;;7.93;7.13;;;37.20;42.90;;;36.11;nan;100974.00;4933621;29;20633;-70
2022/05/10 10:30:18;;;;;;;8.27;7.53;;;35.50;43.90;;;34.74;nan;100963.63;4922918;29;21112;-67
2022/05/10 10:32:56;;;;;;;4.70;3.97;;;34.00;45.70;;;34.00;nan;100960.00;4921192;29;20641;-66
2022/05/10 10:35:45;;;;;;;9.23;8.33;;;33.60;47.10;;;33.31;nan;100956.22;4930944;29;20637;-68
2022/05/10 10:38:23;;;;;;;9.43;7.00;;;32.60;47.90;;;32.09;nan;100955.41;4915036;29;21190;-67
2022/05/10 10:41:04;;;;;;;9.47;7.30;;;31.60;49.20;;;31.21;nan;100944.19;4914958;29;20649;-69
2022/05/10 10:43:54;;;;;;;11.73;7.93;;;30.80;50.30;;;31.29;nan;100938.44;4922048;29;20998;-66
2022/05/10 10:46:36;;;;;;;9.80;8.27;;;30.50;50.80;;;30.82;nan;100939.53;4934185;29;20641;-65
2022/05/10 10:49:15;;;;;;;11.80;8.27;;;30.10;51.50;;;30.37;nan;100936.56;4934540;29;21173;-66
2022/05/10 10:51:42;;;;;;;9.30;8.40;;;29.60;52.10;;;30.12;nan;100944.00;4930183;29;21077;-66
2022/05/10 10:54:20;;;;;;;9.67;8.30;;;29.40;52.60;;;29.66;nan;100933.88;4919740;29;20640;-67
2022/05/10 10:57:27;;;;;;;8.77;7.87;;;29.10;53.00;;;30.06;nan;100934.97;4933084;29;20632;-68
2022/05/10 11:00:07;;;;;;;8.63;7.83;;;29.30;53.70;;;30.10;nan;100933.47;4932053;29;20656;-67